Observation data for Northwest Lubbock on 07/17/2019      Previous  Date  Next       Current Mesonet Observations  Soil Data  Daily Summary Page  Observations in Plain Language
KLBW 170500Z 14010G16KT 29/15 A3003 RMK A01 T02900147  RH  044%=      5-min Rain = 0
KLBW 170505Z 14009G14KT 29/15 A3003 RMK A01 T02890148  RH  044%=      5-min Rain = 0
KLBW 170510Z 14011G17KT 29/15 A3003 RMK A01 T02890148  RH  044%=      5-min Rain = 0
KLBW 170515Z 14009KT 29/15 A3003 RMK A01 T02880148  RH  045%=      5-min Rain = 0
KLBW 170520Z 14010KT 29/15 A3003 RMK A01 T02860148  RH  045%=      5-min Rain = 0
KLBW 170525Z 14010G15KT 29/15 A3003 RMK A01 T02860148  RH  045%=      5-min Rain = 0
KLBW 170530Z 14010KT 29/15 A3003 RMK A01 T02860148  RH  045%=      5-min Rain = 0
KLBW 170535Z 14009KT 29/15 A3003 RMK A01 T02850149  RH  045%=      5-min Rain = 0
KLBW 170540Z 14009KT 28/15 A3003 RMK A01 T02840149  RH  046%=      5-min Rain = 0
KLBW 170545Z 14010G15KT 28/15 A3003 RMK A01 T02830149  RH  046%=      5-min Rain = 0
KLBW 170550Z 15009KT 28/15 A3003 RMK A01 T02820149  RH  046%=      5-min Rain = 0
KLBW 170555Z 14009KT 28/15 A3003 RMK A01 T02820149  RH  046%=      5-min Rain = 0
KLBW 170600Z 15010G15KT 28/15 A3003 RMK A01 T02830148  RH  046%=      5-min Rain = 0
KLBW 170605Z 15010G15KT 28/15 A3002 RMK A01 T02820148  RH  046%=      5-min Rain = 0
KLBW 170610Z 15010KT 28/15 A3002 RMK A01 T02820148  RH  046%=      5-min Rain = 0
KLBW 170615Z 14008G14KT 28/15 A3002 RMK A01 T02810149  RH  047%=      5-min Rain = 0
KLBW 170620Z 15009G16KT 28/15 A3002 RMK A01 T02800149  RH  047%=      5-min Rain = 0
KLBW 170625Z 15008G13KT 28/15 A3002 RMK A01 T02790149  RH  047%=      5-min Rain = 0
KLBW 170630Z 15008KT 28/15 A3002 RMK A01 T02770149  RH  047%=      5-min Rain = 0
KLBW 170635Z 15009KT 28/15 A3002 RMK A01 T02780148  RH  047%=      5-min Rain = 0
KLBW 170640Z 15009KT 28/15 A3003 RMK A01 T02780148  RH  047%=      5-min Rain = 0
KLBW 170645Z 15008KT 28/15 A3003 RMK A01 T02770148  RH  047%=      5-min Rain = 0
KLBW 170650Z 15008KT 28/15 A3003 RMK A01 T02770148  RH  047%=      5-min Rain = 0
KLBW 170655Z 16008KT 28/15 A3003 RMK A01 T02750148  RH  048%=      5-min Rain = 0
KLBW 170700Z 15009G14KT 28/15 A3003 RMK A01 T02750148  RH  048%=      5-min Rain = 0
KLBW 170705Z 16008G13KT 28/15 A3003 RMK A01 T02750149  RH  048%=      5-min Rain = 0
KLBW 170710Z 16009G15KT 27/15 A3002 RMK A01 T02740148  RH  048%=      5-min Rain = 0
KLBW 170715Z 16009KT 28/15 A3002 RMK A01 T02750148  RH  048%=      5-min Rain = 0
KLBW 170720Z 16009KT 27/15 A3002 RMK A01 T02740148  RH  048%=      5-min Rain = 0
KLBW 170725Z 16008KT 27/15 A3003 RMK A01 T02730148  RH  048%=      5-min Rain = 0
KLBW 170730Z 17008KT 27/15 A3003 RMK A01 T02720147  RH  048%=      5-min Rain = 0
KLBW 170735Z 17009KT 27/15 A3003 RMK A01 T02720147  RH  048%=      5-min Rain = 0
KLBW 170740Z 17008KT 27/15 A3003 RMK A01 T02720147  RH  048%=      5-min Rain = 0
KLBW 170745Z 17007KT 27/15 A3003 RMK A01 T02710147  RH  049%=      5-min Rain = 0
KLBW 170750Z 17007G12KT 27/15 A3003 RMK A01 T02700148  RH  049%=      5-min Rain = 0
KLBW 170755Z 17008KT 27/15 A3003 RMK A01 T02700149  RH  049%=      5-min Rain = 0
KLBW 170800Z 18010G17KT 27/15 A3003 RMK A01 T02710149  RH  049%=      5-min Rain = 0
KLBW 170805Z 18009G14KT 27/15 A3003 RMK A01 T02710149  RH  050%=      5-min Rain = 0
KLBW 170810Z 17011G16KT 27/15 A3003 RMK A01 T02700150  RH  050%=      5-min Rain = 0
KLBW 170815Z 18010G15KT 27/15 A3003 RMK A01 T02700151  RH  050%=      5-min Rain = 0
KLBW 170820Z 18009KT 27/15 A3003 RMK A01 T02690151  RH  051%=      5-min Rain = 0
KLBW 170825Z 17008KT 27/15 A3003 RMK A01 T02670152  RH  051%=      5-min Rain = 0
KLBW 170830Z 17010KT 27/15 A3003 RMK A01 T02670152  RH  052%=      5-min Rain = 0
KLBW 170835Z 17009KT 27/15 A3002 RMK A01 T02670153  RH  052%=      5-min Rain = 0
KLBW 170840Z 17009G14KT 27/15 A3003 RMK A01 T02660153  RH  052%=      5-min Rain = 0
KLBW 170845Z 18009KT 27/15 A3003 RMK A01 T02650153  RH  052%=      5-min Rain = 0
KLBW 170850Z 18008KT 26/15 A3003 RMK A01 T02640154  RH  053%=      5-min Rain = 0
KLBW 170855Z 19007KT 26/15 A3003 RMK A01 T02630154  RH  054%=      5-min Rain = 0
KLBW 170900Z 19009KT 26/16 A3003 RMK A01 T02630155  RH  054%=      5-min Rain = 0
KLBW 170905Z 19008KT 26/16 A3003 RMK A01 T02610155  RH  054%=      5-min Rain = 0
KLBW 170910Z 19008KT 26/16 A3003 RMK A01 T02610155  RH  054%=      5-min Rain = 0
KLBW 170915Z 19009KT 26/16 A3003 RMK A01 T02600155  RH  055%=      5-min Rain = 0
KLBW 170920Z 19009KT 26/16 A3003 RMK A01 T02600156  RH  055%=      5-min Rain = 0
KLBW 170925Z 20008KT 26/16 A3003 RMK A01 T02590156  RH  056%=      5-min Rain = 0
KLBW 170930Z 21008G13KT 26/16 A3003 RMK A01 T02580157  RH  056%=      5-min Rain = 0
KLBW 170935Z 21008KT 26/16 A3003 RMK A01 T02560157  RH  057%=      5-min Rain = 0
KLBW 170940Z 20007KT 26/16 A3003 RMK A01 T02550157  RH  057%=      5-min Rain = 0
KLBW 170945Z 20007KT 26/16 A3003 RMK A01 T02550158  RH  058%=      5-min Rain = 0
KLBW 170950Z 20007KT 25/16 A3003 RMK A01 T02530158  RH  058%=      5-min Rain = 0
KLBW 170955Z 19006KT 25/16 A3003 RMK A01 T02520158  RH  059%=      5-min Rain = 0
KLBW 171000Z 18007KT 25/16 A3003 RMK A01 T02510159  RH  059%=      5-min Rain = 0
KLBW 171005Z 19006KT 25/16 A3004 RMK A01 T02510159  RH  060%=      5-min Rain = 0
KLBW 171010Z 20006KT 25/16 A3004 RMK A01 T02490159  RH  060%=      5-min Rain = 0
KLBW 171015Z 20006KT 25/16 A3004 RMK A01 T02480160  RH  061%=      5-min Rain = 0
KLBW 171020Z 20006KT 25/16 A3004 RMK A01 T02480161  RH  061%=      5-min Rain = 0
KLBW 171025Z 21005KT 25/16 A3004 RMK A01 T02470161  RH  062%=      5-min Rain = 0
KLBW 171030Z 21005KT 25/16 A3004 RMK A01 T02450161  RH  063%=      5-min Rain = 0
KLBW 171035Z 19006KT 24/16 A3004 RMK A01 T02440162  RH  063%=      5-min Rain = 0
KLBW 171040Z 19006KT 25/16 A3004 RMK A01 T02450162  RH  063%=      5-min Rain = 0
KLBW 171045Z 19005KT 24/16 A3004 RMK A01 T02440162  RH  063%=      5-min Rain = 0
KLBW 171050Z 19006KT 24/16 A3004 RMK A01 T02430162  RH  064%=      5-min Rain = 0
KLBW 171055Z 19006KT 24/16 A3004 RMK A01 T02430163  RH  064%=      5-min Rain = 0
KLBW 171100Z 19006KT 24/16 A3004 RMK A01 T02420163  RH  064%=      5-min Rain = 0
KLBW 171105Z 19007KT 24/16 A3004 RMK A01 T02420163  RH  064%=      5-min Rain = 0
KLBW 171110Z 20007KT 24/16 A3004 RMK A01 T02430164  RH  064%=      5-min Rain = 0
KLBW 171115Z 20006KT 24/16 A3004 RMK A01 T02420164  RH  065%=      5-min Rain = 0
KLBW 171120Z 19007KT 24/16 A3004 RMK A01 T02410164  RH  065%=      5-min Rain = 0
KLBW 171125Z 19008KT 24/17 A3004 RMK A01 T02420165  RH  065%=      5-min Rain = 0
KLBW 171130Z 19007KT 24/17 A3004 RMK A01 T02430165  RH  065%=      5-min Rain = 0
KLBW 171135Z 19009KT 24/17 A3004 RMK A01 T02430165  RH  065%=      5-min Rain = 0
KLBW 171140Z 18008KT 24/17 A3004 RMK A01 T02440166  RH  064%=      5-min Rain = 0
KLBW 171145Z 18009KT 24/17 A3004 RMK A01 T02440166  RH  065%=      5-min Rain = 0
KLBW 171150Z 18009G14KT 25/17 A3004 RMK A01 T02450166  RH  065%=      5-min Rain = 0
KLBW 171155Z 19010KT 25/17 A3004 RMK A01 T02450166  RH  064%=      5-min Rain = 0
KLBW 171200Z 19009G15KT 24/17 A3004 RMK A01 T02440166  RH  065%=      5-min Rain = 0
KLBW 171205Z 19008KT 24/17 A3004 RMK A01 T02440166  RH  065%=      5-min Rain = 0
KLBW 171210Z 19010KT 24/17 A3004 RMK A01 T02440167  RH  065%=      5-min Rain = 0
KLBW 171215Z 18008KT 24/17 A3004 RMK A01 T02440167  RH  065%=      5-min Rain = 0
KLBW 171220Z 18009KT 24/17 A3004 RMK A01 T02440168  RH  066%=      5-min Rain = 0
KLBW 171225Z 18009G14KT 24/17 A3004 RMK A01 T02440168  RH  066%=      5-min Rain = 0
KLBW 171230Z 18009G16KT 25/17 A3005 RMK A01 T02450168  RH  066%=      5-min Rain = 0
KLBW 171235Z 19010G17KT 25/17 A3005 RMK A01 T02460169  RH  065%=      5-min Rain = 0
KLBW 171240Z 19010KT 25/17 A3005 RMK A01 T02470169  RH  065%=      5-min Rain = 0
KLBW 171245Z 19010KT 25/17 A3005 RMK A01 T02480170  RH  065%=      5-min Rain = 0
KLBW 171250Z 19010G15KT 25/17 A3005 RMK A01 T02490170  RH  065%=      5-min Rain = 0
KLBW 171255Z 20009G17KT 25/17 A3005 RMK A01 T02500171  RH  065%=      5-min Rain = 0
KLBW 171300Z 20012KT 25/17 A3005 RMK A01 T02510171  RH  064%=      5-min Rain = 0
KLBW 171305Z 19012G18KT 25/17 A3005 RMK A01 T02520171  RH  064%=      5-min Rain = 0
KLBW 171310Z 19012KT 25/17 A3006 RMK A01 T02530172  RH  064%=      5-min Rain = 0
KLBW 171315Z 19013G19KT 25/17 A3006 RMK A01 T02540172  RH  064%=      5-min Rain = 0
KLBW 171320Z 19013G19KT 26/17 A3006 RMK A01 T02550173  RH  064%=      5-min Rain = 0
KLBW 171325Z 19012G17KT 26/17 A3006 RMK A01 T02560173  RH  064%=      5-min Rain = 0
KLBW 171330Z 19014G20KT 26/17 A3006 RMK A01 T02570174  RH  063%=      5-min Rain = 0
KLBW 171335Z 19014G19KT 26/17 A3006 RMK A01 T02580174  RH  063%=      5-min Rain = 0
KLBW 171340Z 19013G18KT 26/18 A3006 RMK A01 T02600175  RH  063%=      5-min Rain = 0
KLBW 171345Z 19013G18KT 26/18 A3006 RMK A01 T02610175  RH  062%=      5-min Rain = 0
KLBW 171350Z 18012G17KT 26/18 A3007 RMK A01 T02640176  RH  062%=      5-min Rain = 0
KLBW 171355Z 19014G19KT 26/18 A3007 RMK A01 T02640175  RH  061%=      5-min Rain = 0
KLBW 171400Z 18015G21KT 27/18 A3007 RMK A01 T02650176  RH  061%=      5-min Rain = 0
KLBW 171405Z 19014G19KT 27/18 A3007 RMK A01 T02660175  RH  060%=      5-min Rain = 0
KLBW 171410Z 19014G19KT 27/18 A3007 RMK A01 T02690175  RH  060%=      5-min Rain = 0
KLBW 171415Z 19013G19KT 27/18 A3007 RMK A01 T02720176  RH  059%=      5-min Rain = 0
KLBW 171420Z 20012G19KT 27/18 A3007 RMK A01 T02730176  RH  058%=      5-min Rain = 0
KLBW 171425Z 20012G18KT 28/18 A3007 RMK A01 T02750176  RH  058%=      5-min Rain = 0
KLBW 171430Z 20012G17KT 28/18 A3007 RMK A01 T02770177  RH  057%=      5-min Rain = 0
KLBW 171435Z 19013G20KT 28/18 A3007 RMK A01 T02790176  RH  056%=      5-min Rain = 0
KLBW 171440Z 19015KT 28/17 A3007 RMK A01 T02760174  RH  056%=      5-min Rain = 0
KLBW 171445Z 18012G19KT 28/18 A3007 RMK A01 T02800177  RH  056%=      5-min Rain = 0
KLBW 171450Z 18014G20KT 28/18 A3007 RMK A01 T02800175  RH  056%=      5-min Rain = 0
KLBW 171455Z 18012G18KT 28/18 A3007 RMK A01 T02820177  RH  056%=      5-min Rain = 0
KLBW 171500Z 18013G20KT 29/18 A3007 RMK A01 T02850176  RH  054%=      5-min Rain = 0
KLBW 171505Z 18014G20KT 28/18 A3007 RMK A01 T02840175  RH  054%=      5-min Rain = 0
KLBW 171510Z 19012G18KT 29/18 A3007 RMK A01 T02860177  RH  054%=      5-min Rain = 0
KLBW 171515Z 17013KT 29/18 A3007 RMK A01 T02870178  RH  054%=      5-min Rain = 0
KLBW 171520Z 17013G19KT 29/18 A3007 RMK A01 T02860177  RH  055%=      5-min Rain = 0
KLBW 171525Z 18014G19KT 29/18 A3007 RMK A01 T02900178  RH  054%=      5-min Rain = 0
KLBW 171530Z 19014KT 29/18 A3007 RMK A01 T02900177  RH  053%=      5-min Rain = 0
KLBW 171535Z 19013G20KT 29/18 A3007 RMK A01 T02910176  RH  053%=      5-min Rain = 0
KLBW 171540Z 18011G19KT 29/18 A3007 RMK A01 T02930177  RH  053%=      5-min Rain = 0
KLBW 171545Z 17013G18KT 30/18 A3007 RMK A01 T02960176  RH  051%=      5-min Rain = 0
KLBW 171550Z 17012KT 30/18 A3007 RMK A01 T03000177  RH  050%=      5-min Rain = 0
KLBW 171555Z 18013G18KT 30/18 A3007 RMK A01 T02990175  RH  050%=      5-min Rain = 0
KLBW 171600Z 20010KT 30/18 A3007 RMK A01 T03020176  RH  050%=      5-min Rain = 0
KLBW 171605Z 19009G15KT 31/18 A3007 RMK A01 T03090177  RH  048%=      5-min Rain = 0
KLBW 171610Z 21012G17KT 31/17 A3007 RMK A01 T03080173  RH  047%=      5-min Rain = 0
KLBW 171615Z 20011G16KT 31/17 A3007 RMK A01 T03070174  RH  047%=      5-min Rain = 0
KLBW 171620Z 22011G16KT 31/18 A3007 RMK A01 T03100175  RH  047%=      5-min Rain = 0
KLBW 171625Z 19012KT 31/17 A3007 RMK A01 T03090169  RH  045%=      5-min Rain = 0
KLBW 171630Z 19011G16KT 31/17 A3007 RMK A01 T03110169  RH  045%=      5-min Rain = 0
KLBW 171635Z 19010KT 32/17 A3007 RMK A01 T03150170  RH  044%=      5-min Rain = 0
KLBW 171640Z 20011G16KT 32/17 A3007 RMK A01 T03170170  RH  044%=      5-min Rain = 0
KLBW 171645Z 19010G17KT 32/17 A3007 RMK A01 T03170169  RH  043%=      5-min Rain = 0
KLBW 171650Z 18010G15KT 32/17 A3007 RMK A01 T03190168  RH  042%=      5-min Rain = 0
KLBW 171655Z 19010G17KT 32/17 A3007 RMK A01 T03200170  RH  043%=      5-min Rain = 0
KLBW 171700Z 20011G16KT 33/17 A3007 RMK A01 T03250169  RH  041%=      5-min Rain = 0
KLBW 171705Z 19011G17KT 32/17 A3007 RMK A01 T03220167  RH  041%=      5-min Rain = 0
KLBW 171710Z 18012G17KT 32/16 A3007 RMK A01 T03240164  RH  040%=      5-min Rain = 0
KLBW 171715Z 21011KT 32/17 A3006 RMK A01 T03230165  RH  041%=      5-min Rain = 0
KLBW 171720Z 19012G19KT 33/16 A3006 RMK A01 T03290163  RH  039%=      5-min Rain = 0
KLBW 171725Z 17011G16KT 33/16 A3006 RMK A01 T03300164  RH  039%=      5-min Rain = 0
KLBW 171730Z 18011G17KT 33/16 A3006 RMK A01 T03320163  RH  038%=      5-min Rain = 0
KLBW 171735Z 18011G20KT 34/16 A3006 RMK A01 T03350161  RH  037%=      5-min Rain = 0
KLBW 171740Z 19009G15KT 34/16 A3006 RMK A01 T03380161  RH  037%=      5-min Rain = 0
KLBW 171745Z 17011G17KT 35/15 A3006 RMK A01 T03450153  RH  033%=      5-min Rain = 0
KLBW 171750Z 16013G20KT 34/15 A3005 RMK A01 T03380146  RH  033%=      5-min Rain = 0
KLBW 171755Z 16012G17KT 34/15 A3005 RMK A01 T03420147  RH  033%=      5-min Rain = 0
KLBW 171800Z 17012G17KT 34/15 A3005 RMK A01 T03390148  RH  033%=      5-min Rain = 0
KLBW 171805Z 18013G19KT 34/15 A3005 RMK A01 T03400149  RH  033%=      5-min Rain = 0
KLBW 171810Z 17013KT 34/15 A3005 RMK A01 T03420148  RH  033%=      5-min Rain = 0
KLBW 171815Z 18014G21KT 34/14 A3004 RMK A01 T03420143  RH  031%=      5-min Rain = 0
KLBW 171820Z 16012KT 35/14 A3004 RMK A01 T03460143  RH  031%=      5-min Rain = 0
KLBW 171825Z 16010G16KT 35/15 A3004 RMK A01 T03470147  RH  031%=      5-min Rain = 0
KLBW 171830Z 16014G22KT 35/14 A3004 RMK A01 T03530144  RH  030%=      5-min Rain = 0
KLBW 171835Z 16013G18KT 35/14 A3004 RMK A01 T03480141  RH  030%=      5-min Rain = 0
KLBW 171840Z 16014G20KT 35/14 A3004 RMK A01 T03490140  RH  030%=      5-min Rain = 0
KLBW 171845Z 18013G18KT 35/13 A3004 RMK A01 T03510133  RH  028%=      5-min Rain = 0
KLBW 171850Z 18012G19KT 35/13 A3004 RMK A01 T03530130  RH  027%=      5-min Rain = 0
KLBW 171855Z 17015G20KT 35/13 A3004 RMK A01 T03540134  RH  028%=      5-min Rain = 0
KLBW 171900Z 17013G18KT 36/13 A3004 RMK A01 T03550132  RH  027%=      5-min Rain = 0
KLBW 171905Z 17012G20KT 35/13 A3004 RMK A01 T03500129  RH  028%=      5-min Rain = 0
KLBW 171910Z 17013G18KT 35/13 A3003 RMK A01 T03510130  RH  028%=      5-min Rain = 0
KLBW 171915Z 16013G19KT 34/12 A3003 RMK A01 T03440123  RH  027%=      5-min Rain = 0
KLBW 171920Z 17013G20KT 34/13 A3003 RMK A01 T03420127  RH  028%=      5-min Rain = 0
KLBW 171925Z 18011KT 35/13 A3003 RMK A01 T03460128  RH  028%=      5-min Rain = 0
KLBW 171930Z 17012G20KT 35/14 A3002 RMK A01 T03530135  RH  028%=      5-min Rain = 0
KLBW 171935Z 19011G17KT 36/13 A3002 RMK A01 T03560131  RH  027%=      5-min Rain = 0
KLBW 171940Z 18011G19KT 36/14 A3002 RMK A01 T03640135  RH  026%=      5-min Rain = 0
KLBW 171945Z 18013G18KT 36/13 A3002 RMK A01 T03570126  RH  026%=      5-min Rain = 0
KLBW 171950Z 17012G19KT 36/13 A3001 RMK A01 T03600134  RH  027%=      5-min Rain = 0
KLBW 171955Z 17011G17KT 36/13 A3001 RMK A01 T03600132  RH  026%=      5-min Rain = 0
KLBW 172000Z 16010G15KT 36/14 A3001 RMK A01 T03640137  RH  027%=      5-min Rain = 0
KLBW 172005Z 18013G21KT 36/13 A3001 RMK A01 T03640133  RH  026%=      5-min Rain = 0
KLBW 172010Z 18013G18KT 36/13 A3001 RMK A01 T03600126  RH  025%=      5-min Rain = 0
KLBW 172015Z 18011G17KT 36/12 A3001 RMK A01 T03580116  RH  024%=      5-min Rain = 0
KLBW 172020Z 17011G16KT 36/13 A30 RMK A01 T03610125  RH  025%=      5-min Rain = 0
KLBW 172025Z 18012G17KT 36/13 A30 RMK A01 T03620133  RH  026%=      5-min Rain = 0
KLBW 172030Z 18011G16KT 36/13 A30 RMK A01 T03620131  RH  026%=      5-min Rain = 0
KLBW 172035Z 18009G15KT 37/13 A30 RMK A01 T03670130  RH  025%=      5-min Rain = 0
KLBW 172040Z 18011G18KT 37/13 A30 RMK A01 T03680127  RH  025%=      5-min Rain = 0
KLBW 172045Z 15010G17KT 36/13 A2999 RMK A01 T03640130  RH  026%=      5-min Rain = 0
KLBW 172050Z 17012G17KT 37/13 A2999 RMK A01 T03670128  RH  025%=      5-min Rain = 0
KLBW 172055Z 17011G19KT 36/13 A2999 RMK A01 T03630128  RH  025%=      5-min Rain = 0
KLBW 172100Z 17011G18KT 36/13 A2998 RMK A01 T03630127  RH  025%=      5-min Rain = 0
KLBW 172105Z 18012G17KT 37/12 A2998 RMK A01 T03720119  RH  023%=      5-min Rain = 0
KLBW 172110Z 16012G19KT 36/13 A2998 RMK A01 T03640127  RH  025%=      5-min Rain = 0
KLBW 172115Z 18014G24KT 36/13 A2998 RMK A01 T03640127  RH  025%=      5-min Rain = 0
KLBW 172120Z 16009G15KT 37/13 A2998 RMK A01 T03650125  RH  025%=      5-min Rain = 0
KLBW 172125Z 16013G19KT 37/12 A2998 RMK A01 T03650124  RH  025%=      5-min Rain = 0
KLBW 172130Z 18011G18KT 37/13 A2998 RMK A01 T03650125  RH  025%=      5-min Rain = 0
KLBW 172135Z 16010G16KT 37/13 A2998 RMK A01 T03690125  RH  024%=      5-min Rain = 0
KLBW 172140Z 17012G17KT 37/12 A2998 RMK A01 T03670119  RH  023%=      5-min Rain = 0
KLBW 172145Z 17013KT 36/12 A2997 RMK A01 T03640116  RH  023%=      5-min Rain = 0
KLBW 172150Z 17012G17KT 36/12 A2997 RMK A01 T03630121  RH  024%=      5-min Rain = 0
KLBW 172155Z 16012G20KT 36/12 A2997 RMK A01 T03600119  RH  024%=      5-min Rain = 0
KLBW 172200Z 16010KT 36/11 A2997 RMK A01 T03630113  RH  023%=      5-min Rain = 0
KLBW 172205Z 18008G13KT 37/12 A2997 RMK A01 T03690119  RH  023%=      5-min Rain = 0
KLBW 172210Z 19012G17KT 37/12 A2997 RMK A01 T03670118  RH  023%=      5-min Rain = 0
KLBW 172215Z 17012G18KT 36/12 A2996 RMK A01 T03640117  RH  023%=      5-min Rain = 0
KLBW 172220Z 17011G16KT 37/12 A2996 RMK A01 T03670115  RH  023%=      5-min Rain = 0
KLBW 172225Z 18011G17KT 37/12 A2996 RMK A01 T03650117  RH  023%=      5-min Rain = 0
KLBW 172230Z 17012G18KT 36/12 A2996 RMK A01 T03630117  RH  024%=      5-min Rain = 0
KLBW 172235Z 16010KT 36/12 A2996 RMK A01 T03640117  RH  023%=      5-min Rain = 0
KLBW 172240Z 16011KT 37/12 A2996 RMK A01 T03650118  RH  023%=      5-min Rain = 0
KLBW 172245Z 14011KT 36/12 A2996 RMK A01 T03600117  RH  024%=      5-min Rain = 0
KLBW 172250Z 17013G18KT 36/12 A2996 RMK A01 T03600115  RH  024%=      5-min Rain = 0
KLBW 172255Z 19010G16KT 36/11 A2996 RMK A01 T03600114  RH  023%=      5-min Rain = 0
KLBW 172300Z 18012G17KT 36/11 A2996 RMK A01 T03600110  RH  023%=      5-min Rain = 0
KLBW 172305Z 16010G16KT 36/11 A2996 RMK A01 T03600112  RH  023%=      5-min Rain = 0
KLBW 172310Z 16011G17KT 36/11 A2996 RMK A01 T03590111  RH  023%=      5-min Rain = 0
KLBW 172315Z 17009KT 36/11 A2996 RMK A01 T03630113  RH  023%=      5-min Rain = 0
KLBW 172320Z 17011G16KT 36/11 A2996 RMK A01 T03610112  RH  023%=      5-min Rain = 0
KLBW 172325Z 16012G18KT 36/11 A2996 RMK A01 T03580113  RH  024%=      5-min Rain = 0
KLBW 172330Z 16009G14KT 36/12 A2995 RMK A01 T03580117  RH  024%=      5-min Rain = 0
KLBW 172335Z 16010G15KT 36/12 A2995 RMK A01 T03600118  RH  024%=      5-min Rain = 0
KLBW 172340Z 16013KT 35/12 A2996 RMK A01 T03540115  RH  024%=      5-min Rain = 0
KLBW 172345Z 17009KT 36/11 A2995 RMK A01 T03560114  RH  024%=      5-min Rain = 0
KLBW 172350Z 18011G16KT 36/11 A2995 RMK A01 T03550107  RH  023%=      5-min Rain = 0
KLBW 172355Z 17009KT 35/11 A2995 RMK A01 T03540107  RH  023%=      5-min Rain = 0
KLBW 180000Z 15009KT 35/11 A2995 RMK A01 T03540106  RH  023%=      5-min Rain = 0
KLBW 180005Z 16011G17KT 35/11 A2995 RMK A01 T03520110  RH  024%=      5-min Rain = 0
KLBW 180010Z 16011G16KT 35/11 A2995 RMK A01 T03510112  RH  024%=      5-min Rain = 0
KLBW 180015Z 15011G17KT 35/11 A2995 RMK A01 T03500111  RH  024%=      5-min Rain = 0
KLBW 180020Z 17010G15KT 35/11 A2995 RMK A01 T03480111  RH  025%=      5-min Rain = 0
KLBW 180025Z 16008G14KT 35/11 A2995 RMK A01 T03500112  RH  024%=      5-min Rain = 0
KLBW 180030Z 17012KT 35/10 A2995 RMK A01 T03470104  RH  024%=      5-min Rain = 0
KLBW 180035Z 18011G16KT 34/11 A2995 RMK A01 T03440106  RH  024%=      5-min Rain = 0
KLBW 180040Z 17009KT 34/11 A2995 RMK A01 T03440107  RH  024%=      5-min Rain = 0
KLBW 180045Z 15009G14KT 34/11 A2995 RMK A01 T03430108  RH  025%=      5-min Rain = 0
KLBW 180050Z 15011KT 34/11 A2995 RMK A01 T03410108  RH  025%=      5-min Rain = 0
KLBW 180055Z 17009KT 34/11 A2995 RMK A01 T03400108  RH  025%=      5-min Rain = 0
KLBW 180100Z 17009G14KT 34/11 A2995 RMK A01 T03390108  RH  025%=      5-min Rain = 0
KLBW 180105Z 17011G17KT 34/11 A2995 RMK A01 T03370107  RH  025%=      5-min Rain = 0
KLBW 180110Z 17012KT 34/10 A2995 RMK A01 T03350104  RH  025%=      5-min Rain = 0
KLBW 180115Z 18011G17KT 33/10 A2995 RMK A01 T03310102  RH  025%=      5-min Rain = 0
KLBW 180120Z 17010KT 33/10 A2995 RMK A01 T03280101  RH  026%=      5-min Rain = 0
KLBW 180125Z 17010G16KT 33/10 A2995 RMK A01 T03270100  RH  026%=      5-min Rain = 0
KLBW 180130Z 17008G13KT 32/10 A2995 RMK A01 T03240101  RH  026%=      5-min Rain = 0
KLBW 180135Z 17008KT 32/10 A2995 RMK A01 T03220102  RH  027%=      5-min Rain = 0
KLBW 180140Z 16008G13KT 32/10 A2995 RMK A01 T03210104  RH  027%=      5-min Rain = 0
KLBW 180145Z 16008KT 32/11 A2995 RMK A01 T03200106  RH  028%=      5-min Rain = 0
KLBW 180150Z 17010KT 32/11 A2995 RMK A01 T03190106  RH  028%=      5-min Rain = 0
KLBW 180155Z 16009KT 32/11 A2996 RMK A01 T03210107  RH  028%=      5-min Rain = 0
KLBW 180200Z 16007KT 32/11 A2996 RMK A01 T03180110  RH  029%=      5-min Rain = 0
KLBW 180205Z 16007KT 32/11 A2996 RMK A01 T03150112  RH  030%=      5-min Rain = 0
KLBW 180210Z 16008KT 32/11 A2996 RMK A01 T03150114  RH  030%=      5-min Rain = 0
KLBW 180215Z 16008KT 31/12 A2996 RMK A01 T03130116  RH  031%=      5-min Rain = 0
KLBW 180220Z 16008KT 31/12 A2996 RMK A01 T03130117  RH  031%=      5-min Rain = 0
KLBW 180225Z 15007KT 31/12 A2996 RMK A01 T03120117  RH  031%=      5-min Rain = 0
KLBW 180230Z 16008KT 31/12 A2996 RMK A01 T03110119  RH  032%=      5-min Rain = 0
KLBW 180235Z 16008KT 31/12 A2996 RMK A01 T03110122  RH  033%=      5-min Rain = 0
KLBW 180240Z 16008G14KT 31/13 A2996 RMK A01 T03100125  RH  033%=      5-min Rain = 0
KLBW 180245Z 16011KT 31/13 A2996 RMK A01 T03110128  RH  034%=      5-min Rain = 0
KLBW 180250Z 16010G16KT 31/13 A2996 RMK A01 T03110130  RH  034%=      5-min Rain = 0
KLBW 180255Z 15010KT 31/13 A2996 RMK A01 T03110130  RH  034%=      5-min Rain = 0
KLBW 180300Z 15008KT 31/13 A2997 RMK A01 T03090130  RH  035%=      5-min Rain = 0
KLBW 180305Z 14009KT 31/13 A2997 RMK A01 T03060129  RH  035%=      5-min Rain = 0
KLBW 180310Z 14010G15KT 30/13 A2997 RMK A01 T03040132  RH  036%=      5-min Rain = 0
KLBW 180315Z 14011G16KT 30/14 A2997 RMK A01 T03010136  RH  038%=      5-min Rain = 0
KLBW 180320Z 15012G19KT 30/14 A2997 RMK A01 T03010140  RH  039%=      5-min Rain = 0
KLBW 180325Z 15012G19KT 30/14 A2997 RMK A01 T03000142  RH  040%=      5-min Rain = 0
KLBW 180330Z 15011G16KT 30/14 A2997 RMK A01 T02990143  RH  040%=      5-min Rain = 0
KLBW 180335Z 15013G18KT 30/14 A2997 RMK A01 T02990143  RH  040%=      5-min Rain = 0
KLBW 180340Z 15013G20KT 30/14 A2998 RMK A01 T02990143  RH  040%=      5-min Rain = 0
KLBW 180345Z 15011G17KT 30/14 A2998 RMK A01 T02980142  RH  040%=      5-min Rain = 0
KLBW 180350Z 15011G18KT 30/14 A2998 RMK A01 T02980142  RH  040%=      5-min Rain = 0
KLBW 180355Z 15010KT 30/14 A2998 RMK A01 T02960141  RH  041%=      5-min Rain = 0
KLBW 180400Z 15010KT 30/14 A2998 RMK A01 T02950141  RH  041%=      5-min Rain = 0
KLBW 180405Z 15011G17KT 30/14 A2998 RMK A01 T02950140  RH  040%=      5-min Rain = 0
KLBW 180410Z 15010G16KT 30/14 A2998 RMK A01 T02950140  RH  040%=      5-min Rain = 0
KLBW 180415Z 15011KT 29/14 A2998 RMK A01 T02930139  RH  041%=      5-min Rain = 0
KLBW 180420Z 15010G16KT 29/14 A2998 RMK A01 T02920139  RH  041%=      5-min Rain = 0
KLBW 180425Z 15010G16KT 29/14 A2998 RMK A01 T02920139  RH  041%=      5-min Rain = 0
KLBW 180430Z 15009G15KT 29/14 A2998 RMK A01 T02910139  RH  041%=      5-min Rain = 0
KLBW 180435Z 16012G17KT 29/14 A2998 RMK A01 T02910140  RH  041%=      5-min Rain = 0
KLBW 180440Z 16012G20KT 29/14 A2998 RMK A01 T02920141  RH  041%=      5-min Rain = 0
KLBW 180445Z 17013G18KT 29/14 A2997 RMK A01 T02920142  RH  042%=      5-min Rain = 0
KLBW 180450Z 18014G21KT 29/15 A2997 RMK A01 T02910145  RH  043%=      5-min Rain = 0
KLBW 180455Z 18012G18KT 29/15 A2997 RMK A01 T02880147  RH  044%=      5-min Rain = 0

Page generated in 0.0176 seconds.